createdAt,value
2017-04-16T00:00:23.061Z,0
2017-04-16T00:01:32.888Z,0
2017-04-16T00:02:43.251Z,0
2017-04-16T00:03:53.401Z,0
2017-04-16T00:05:03.135Z,0
2017-04-16T00:06:13.199Z,0
2017-04-16T00:07:22.609Z,0
2017-04-16T00:08:32.713Z,0
2017-04-16T00:09:42.446Z,0
2017-04-16T00:10:51.960Z,0
2017-04-16T00:12:02.062Z,0
2017-04-16T00:13:11.918Z,0
2017-04-16T00:14:22.001Z,0
2017-04-16T00:15:31.740Z,0
2017-04-16T00:16:41.540Z,0
2017-04-16T00:17:51.907Z,0
2017-04-16T00:19:01.705Z,0
2017-04-16T00:20:11.775Z,0
2017-04-16T00:21:21.951Z,0
2017-04-16T00:22:32.134Z,0
2017-04-16T00:23:42.215Z,0
2017-04-16T00:24:51.802Z,0
2017-04-16T00:26:01.526Z,0
2017-04-16T00:27:11.597Z,0
2017-04-16T00:28:20.996Z,0
2017-04-16T00:29:30.694Z,0
2017-04-16T00:30:40.756Z,0
2017-04-16T00:31:50.821Z,0
2017-04-16T00:33:00.893Z,0
2017-04-16T00:34:11.013Z,0
2017-04-16T00:35:21.128Z,0
2017-04-16T00:36:30.875Z,0
2017-04-16T00:37:40.739Z,0
2017-04-16T00:38:50.475Z,0
2017-04-16T00:40:00.232Z,0
2017-04-16T00:41:10.653Z,0
2017-04-16T00:42:20.723Z,0
2017-04-16T00:43:30.870Z,0
2017-04-16T00:44:40.315Z,0
2017-04-16T00:45:50.421Z,0
2017-04-16T00:47:00.798Z,0
2017-04-16T00:48:10.552Z,0
2017-04-16T00:49:20.639Z,0
2017-04-16T00:50:30.728Z,0
2017-04-16T00:51:40.189Z,0
2017-04-16T00:52:50.751Z,0
2017-04-16T00:54:00.489Z,0
2017-04-16T00:55:10.634Z,0
2017-04-16T00:56:20.811Z,0
2017-04-16T00:57:30.924Z,0
2017-04-16T00:58:40.627Z,0
2017-04-16T00:59:50.748Z,0
2017-04-16T01:01:00.938Z,0
2017-04-16T01:02:10.677Z,0
2017-04-16T01:03:20.753Z,0
2017-04-16T01:04:30.561Z,0
2017-04-16T01:05:40.653Z,0
2017-04-16T01:06:50.440Z,0
2017-04-16T01:08:00.516Z,0
2017-04-16T01:09:10.281Z,0
2017-04-16T01:10:20.314Z,0
2017-04-16T01:11:30.137Z,0
2017-04-16T01:12:40.222Z,0
2017-04-16T01:13:50.342Z,0
2017-04-16T01:15:00.419Z,0
2017-04-16T01:16:10.809Z,0
2017-04-16T01:17:20.984Z,0
2017-04-16T01:18:31.050Z,0
2017-04-16T01:19:40.587Z,0
2017-04-16T01:20:50.672Z,0
2017-04-16T01:22:01.080Z,0
2017-04-16T01:23:11.187Z,0
2017-04-16T01:24:21.391Z,0
2017-04-16T01:25:31.501Z,0
2017-04-16T01:26:41.571Z,0
2017-04-16T01:27:51.951Z,0
2017-04-16T01:29:02.158Z,0
2017-04-16T01:30:11.671Z,0
2017-04-16T01:31:21.748Z,0
2017-04-16T01:32:31.945Z,0
2017-04-16T01:33:41.644Z,0
2017-04-16T01:34:51.726Z,0
2017-04-16T01:36:01.128Z,0
2017-04-16T01:37:11.203Z,0
2017-04-16T01:38:20.965Z,0
2017-04-16T01:39:31.451Z,0
2017-04-16T01:40:40.918Z,0
2017-04-16T01:41:50.984Z,0
2017-04-16T01:43:01.068Z,0
2017-04-16T01:44:11.226Z,0
2017-04-16T01:45:20.991Z,0
2017-04-16T01:46:30.826Z,0
2017-04-16T01:47:40.941Z,0
2017-04-16T01:48:51.006Z,0
2017-04-16T01:50:00.804Z,0
2017-04-16T01:51:11.184Z,0
2017-04-16T01:52:21.492Z,0
2017-04-16T01:53:31.270Z,0
2017-04-16T01:54:41.331Z,0
2017-04-16T01:55:50.784Z,0
2017-04-16T01:57:01.225Z,0
2017-04-16T01:58:11.376Z,0
2017-04-16T01:59:21.442Z,0
2017-04-16T02:00:31.532Z,0
2017-04-16T02:01:41.826Z,0
2017-04-16T02:02:52.194Z,0
2017-04-16T02:04:02.263Z,0
2017-04-16T02:05:12.321Z,0
2017-04-16T02:06:22.054Z,0
2017-04-16T02:07:32.169Z,0
2017-04-16T02:08:42.200Z,0
2017-04-16T02:09:52.324Z,0
2017-04-16T02:11:02.104Z,0
2017-04-16T02:12:11.866Z,0
2017-04-16T02:13:21.337Z,0
2017-04-16T02:14:31.848Z,0
2017-04-16T02:15:42.039Z,0
2017-04-16T02:16:52.170Z,0
2017-04-16T02:18:02.238Z,0
2017-04-16T02:19:12.387Z,0
2017-04-16T02:20:22.552Z,0
2017-04-16T02:21:32.757Z,0
2017-04-16T02:22:42.512Z,0
2017-04-16T02:23:52.613Z,0
2017-04-16T02:25:02.027Z,0
2017-04-16T02:26:12.522Z,0
2017-04-16T02:27:22.592Z,0
2017-04-16T02:28:32.344Z,0
2017-04-16T02:29:42.075Z,0
2017-04-16T02:30:52.143Z,0
2017-04-16T02:32:02.221Z,0
2017-04-16T02:33:12.034Z,0
2017-04-16T02:34:21.440Z,0
2017-04-16T02:35:31.262Z,0
2017-04-16T02:36:41.328Z,0
2017-04-16T02:37:51.847Z,0
2017-04-16T02:39:01.928Z,0
2017-04-16T02:40:11.766Z,0
2017-04-16T02:41:21.492Z,0
2017-04-16T02:42:31.359Z,0
2017-04-16T02:43:41.546Z,0
2017-04-16T02:44:51.631Z,0
2017-04-16T02:46:01.704Z,0
2017-04-16T02:47:11.770Z,0
2017-04-16T02:48:21.509Z,0
2017-04-16T02:49:32.150Z,0
2017-04-16T02:50:41.548Z,0
2017-04-16T02:51:51.620Z,0
2017-04-16T02:53:01.356Z,0
2017-04-16T02:54:11.458Z,0
2017-04-16T02:55:21.511Z,0
2017-04-16T02:56:31.594Z,0
2017-04-16T02:57:41.686Z,0
2017-04-16T02:58:51.669Z,0
2017-04-16T03:00:01.942Z,0
2017-04-16T03:01:12.306Z,0
2017-04-16T03:02:22.147Z,0
2017-04-16T03:03:32.490Z,0
2017-04-16T03:04:42.223Z,0
2017-04-16T03:05:52.528Z,0
2017-04-16T03:07:02.889Z,0
2017-04-16T03:08:12.619Z,0
2017-04-16T03:09:22.479Z,0
2017-04-16T03:10:32.602Z,0
2017-04-16T03:11:42.730Z,0
2017-04-16T03:12:53.103Z,0
2017-04-16T03:14:02.963Z,0
2017-04-16T03:15:13.177Z,0
2017-04-16T03:16:23.242Z,0
2017-04-16T03:17:32.980Z,0
2017-04-16T03:18:43.359Z,0
2017-04-16T03:19:53.136Z,0
2017-04-16T03:21:02.916Z,0
2017-04-16T03:22:12.698Z,0
2017-04-16T03:23:22.436Z,0
2017-04-16T03:24:32.469Z,0
2017-04-16T03:25:42.603Z,0
2017-04-16T03:26:52.480Z,0
2017-04-16T03:28:02.550Z,0
2017-04-16T03:29:11.956Z,0
2017-04-16T03:30:21.991Z,0
2017-04-16T03:31:32.055Z,0
2017-04-16T03:32:42.142Z,0
2017-04-16T03:33:51.893Z,0
2017-04-16T03:35:02.069Z,0
2017-04-16T03:36:12.475Z,0
2017-04-16T03:37:22.548Z,0
2017-04-16T03:38:32.378Z,0
2017-04-16T03:39:42.712Z,0
2017-04-16T03:40:52.784Z,0
2017-04-16T03:42:03.147Z,0
2017-04-16T03:43:12.884Z,0
2017-04-16T03:44:22.763Z,0
2017-04-16T03:45:32.830Z,0
2017-04-16T03:46:42.894Z,0
2017-04-16T03:47:53.020Z,0
2017-04-16T03:49:02.094Z,0
2017-04-16T03:50:12.214Z,0
2017-04-16T03:51:22.074Z,0
2017-04-16T03:52:32.163Z,0
2017-04-16T03:53:41.932Z,0
2017-04-16T03:54:52.047Z,0
2017-04-16T03:56:02.223Z,0
2017-04-16T03:57:12.335Z,0
2017-04-16T03:58:22.420Z,0
2017-04-16T03:59:32.796Z,0
2017-04-16T04:00:42.860Z,0
2017-04-16T04:01:53.019Z,0
2017-04-16T04:03:02.755Z,0
2017-04-16T04:04:12.946Z,0
2017-04-16T04:05:22.983Z,0
2017-04-16T04:06:32.714Z,5
2017-04-16T04:07:42.657Z,5
2017-04-16T04:08:52.726Z,5
2017-04-16T04:10:02.807Z,5
2017-04-16T04:11:12.952Z,5
2017-04-16T04:12:22.698Z,5
2017-04-16T04:13:32.890Z,5
2017-04-16T04:14:43.057Z,10
2017-04-16T04:15:52.869Z,10
2017-04-16T04:17:03.337Z,10
2017-04-16T04:18:13.125Z,15
2017-04-16T04:19:23.205Z,15
2017-04-16T04:20:32.934Z,15
2017-04-16T04:21:42.022Z,15
2017-04-16T04:22:52.451Z,15
2017-04-16T04:24:02.545Z,15
2017-04-16T04:25:12.676Z,20
2017-04-16T04:26:22.415Z,20
2017-04-16T04:27:32.194Z,25
2017-04-16T04:28:42.304Z,25
2017-04-16T04:29:52.463Z,25
2017-04-16T04:31:01.937Z,25
2017-04-16T04:32:12.055Z,25
2017-04-16T04:33:22.125Z,20
2017-04-16T04:34:32.257Z,20
2017-04-16T04:35:41.702Z,20
2017-04-16T04:36:51.451Z,25
2017-04-16T04:38:01.201Z,30
2017-04-16T04:39:10.938Z,35
2017-04-16T04:40:21.003Z,40
2017-04-16T04:41:31.255Z,40
2017-04-16T04:42:41.337Z,45
2017-04-16T04:43:51.084Z,50
2017-04-16T04:45:01.137Z,50
2017-04-16T04:46:11.234Z,55
2017-04-16T04:47:21.301Z,55
2017-04-16T04:48:30.717Z,65
2017-04-16T04:49:40.206Z,70
2017-04-16T04:50:50.348Z,75
2017-04-16T04:52:00.447Z,75
2017-04-16T04:53:10.558Z,80
2017-04-16T04:54:20.288Z,85
2017-04-16T04:55:30.036Z,75
2017-04-16T04:56:40.134Z,70
2017-04-16T04:57:50.216Z,70
2017-04-16T04:58:59.614Z,70
2017-04-16T05:00:09.355Z,75
2017-04-16T05:01:19.420Z,75
2017-04-16T05:02:29.224Z,80
2017-04-16T05:03:39.591Z,95
2017-04-16T05:04:49.039Z,105
2017-04-16T05:05:58.772Z,100
2017-04-16T05:07:08.509Z,105
2017-04-16T05:08:18.574Z,100
2017-04-16T05:09:28.932Z,95
2017-04-16T05:10:38.663Z,90
2017-04-16T05:11:48.403Z,100
2017-04-16T05:12:58.483Z,100
2017-04-16T05:14:08.213Z,80
2017-04-16T05:15:18.691Z,75
2017-04-16T05:16:28.810Z,70
2017-04-16T05:17:38.899Z,80
2017-04-16T05:18:49.018Z,85
2017-04-16T05:19:58.442Z,100
2017-04-16T05:21:08.139Z,90
2017-04-16T05:22:18.239Z,95
2017-04-16T05:23:28.094Z,100
2017-04-16T05:24:38.180Z,115
2017-04-16T05:25:48.243Z,120
2017-04-16T05:26:58.324Z,125
2017-04-16T05:28:08.053Z,130
2017-04-16T05:29:17.478Z,115
2017-04-16T05:30:27.669Z,105
2017-04-16T05:31:37.447Z,120
2017-04-16T05:32:47.168Z,130
2017-04-16T05:33:56.930Z,130
2017-04-16T05:35:06.996Z,90
2017-04-16T05:36:17.063Z,90
2017-04-16T05:37:26.796Z,105
2017-04-16T05:38:36.611Z,75
2017-04-16T05:39:46.963Z,85
2017-04-16T05:40:56.691Z,115
2017-04-16T05:42:06.464Z,100
2017-04-16T05:43:16.564Z,105
2017-04-16T05:44:26.945Z,120
2017-04-16T05:45:36.471Z,150
2017-04-16T05:46:46.250Z,150
2017-04-16T05:47:56.486Z,140
2017-04-16T05:49:06.697Z,150
2017-04-16T05:50:16.389Z,170
2017-04-16T05:51:26.242Z,170
2017-04-16T05:52:36.377Z,170
2017-04-16T05:53:46.502Z,190
2017-04-16T05:54:56.599Z,150
2017-04-16T05:56:06.972Z,105
2017-04-16T05:57:16.768Z,105
2017-04-16T05:58:26.833Z,125
2017-04-16T05:59:36.901Z,130
2017-04-16T06:00:46.958Z,120
2017-04-16T06:01:57.570Z,145
2017-04-16T06:03:07.757Z,175
2017-04-16T06:04:17.868Z,210
2017-04-16T06:05:27.678Z,245
2017-04-16T06:06:37.849Z,205
2017-04-16T06:07:48.214Z,220
2017-04-16T06:08:58.297Z,180
2017-04-16T06:10:08.392Z,180
2017-04-16T06:11:18.455Z,205
2017-04-16T06:12:28.191Z,195
2017-04-16T06:13:38.234Z,235
2017-04-16T06:14:47.986Z,230
2017-04-16T06:15:57.795Z,240
2017-04-16T06:17:07.523Z,270
2017-04-16T06:18:17.271Z,285
2017-04-16T06:19:27.739Z,275
2017-04-16T06:20:38.050Z,275
2017-04-16T06:21:47.839Z,325
2017-04-16T06:22:57.591Z,275
2017-04-16T06:24:07.694Z,315
2017-04-16T06:25:18.073Z,335
2017-04-16T06:26:27.481Z,345
2017-04-16T06:27:37.213Z,330
2017-04-16T06:28:47.052Z,240
2017-04-16T06:29:57.142Z,235
2017-04-16T06:31:07.521Z,250
2017-04-16T06:32:16.639Z,295
2017-04-16T06:33:26.803Z,315
2017-04-16T06:34:36.963Z,325
2017-04-16T06:35:47.075Z,310
2017-04-16T06:36:57.219Z,310
2017-04-16T06:38:07.341Z,325
2017-04-16T06:39:17.418Z,320
2017-04-16T06:40:27.507Z,260
2017-04-16T06:41:37.236Z,295
2017-04-16T06:42:47.661Z,290
2017-04-16T06:43:57.528Z,345
2017-04-16T06:45:06.935Z,315
2017-04-16T06:46:17.121Z,365
2017-04-16T06:47:26.994Z,430
2017-04-16T06:48:37.386Z,335
2017-04-16T06:49:47.581Z,340
2017-04-16T06:50:57.821Z,320
2017-04-16T06:52:07.933Z,355
2017-04-16T06:53:17.672Z,420
2017-04-16T06:54:27.714Z,565
2017-04-16T06:55:37.836Z,445
2017-04-16T06:56:47.245Z,415
2017-04-16T06:57:57.316Z,395
2017-04-16T06:59:07.229Z,380
2017-04-16T07:00:17.325Z,450
2017-04-16T07:01:27.413Z,450
2017-04-16T07:02:37.585Z,415
2017-04-16T07:03:47.334Z,430
2017-04-16T07:04:57.539Z,375
2017-04-16T07:06:07.662Z,480
2017-04-16T07:07:17.777Z,535
2017-04-16T07:08:27.827Z,645
2017-04-16T07:09:37.933Z,530
2017-04-16T07:10:48.026Z,430
2017-04-16T07:11:58.408Z,455
2017-04-16T07:13:08.489Z,435
2017-04-16T07:14:18.617Z,420
2017-04-16T07:15:28.705Z,455
2017-04-16T07:16:38.793Z,425
2017-04-16T07:17:49.222Z,430
2017-04-16T07:18:58.957Z,360
2017-04-16T07:20:09.136Z,265
2017-04-16T07:21:19.229Z,235
2017-04-16T07:22:29.298Z,285
2017-04-16T07:23:39.450Z,300
2017-04-16T07:24:49.532Z,330
2017-04-16T07:25:59.338Z,340
2017-04-16T07:27:09.405Z,345
2017-04-16T07:28:18.849Z,385
2017-04-16T07:29:29.271Z,355
2017-04-16T07:30:39.043Z,265
2017-04-16T07:31:49.304Z,240
2017-04-16T07:32:59.089Z,205
2017-04-16T07:34:08.505Z,200
2017-04-16T07:35:18.930Z,160
2017-04-16T07:36:29.014Z,140
2017-04-16T07:37:38.540Z,145
2017-04-16T07:38:48.283Z,175
2017-04-16T07:39:58.463Z,215
2017-04-16T07:41:08.492Z,245
2017-04-16T07:42:18.238Z,225
2017-04-16T07:43:28.411Z,205
2017-04-16T07:44:38.586Z,240
2017-04-16T07:45:48.821Z,330
2017-04-16T07:46:59.201Z,375
2017-04-16T07:48:09.417Z,340
2017-04-16T07:49:19.581Z,375
2017-04-16T07:50:29.653Z,310
2017-04-16T07:51:39.718Z,370
2017-04-16T07:52:49.759Z,390
2017-04-16T07:53:59.500Z,445
2017-04-16T07:55:09.607Z,345
2017-04-16T07:56:19.685Z,305
2017-04-16T07:57:29.779Z,235
2017-04-16T07:58:40.195Z,205
2017-04-16T07:59:50.278Z,190
2017-04-16T08:01:00.017Z,190
2017-04-16T08:02:09.793Z,165
2017-04-16T08:03:19.907Z,310
2017-04-16T08:04:30.491Z,470
2017-04-16T08:05:40.700Z,535
2017-04-16T08:06:50.783Z,510
2017-04-16T08:08:00.523Z,495
2017-04-16T08:09:10.676Z,465
2017-04-16T08:10:20.393Z,530
2017-04-16T08:11:30.491Z,580
2017-04-16T08:12:40.271Z,570
2017-04-16T08:13:50.539Z,475
2017-04-16T08:15:00.353Z,470
2017-04-16T08:16:10.933Z,460
2017-04-16T08:17:20.778Z,485
2017-04-16T08:18:30.879Z,525
2017-04-16T08:19:40.752Z,535
2017-04-16T08:20:50.834Z,575
2017-04-16T08:22:00.936Z,395
2017-04-16T08:23:11.029Z,235
2017-04-16T08:24:21.285Z,270
2017-04-16T08:25:31.445Z,325
2017-04-16T08:26:41.554Z,340
2017-04-16T08:27:51.986Z,360
2017-04-16T08:29:01.780Z,390
2017-04-16T08:30:11.528Z,435
2017-04-16T08:31:21.705Z,545
2017-04-16T08:32:31.470Z,515
2017-04-16T08:33:41.849Z,400
2017-04-16T08:34:51.987Z,310
2017-04-16T08:36:01.842Z,300
2017-04-16T08:37:11.945Z,330
2017-04-16T08:38:22.047Z,310
2017-04-16T08:39:32.095Z,315
2017-04-16T08:40:41.927Z,335
2017-04-16T08:41:52.002Z,390
2017-04-16T08:43:01.764Z,435
2017-04-16T08:44:11.870Z,580
2017-04-16T08:45:22.385Z,770
2017-04-16T08:46:32.545Z,935
2017-04-16T08:47:42.412Z,975
2017-04-16T08:48:52.522Z,1050
2017-04-16T08:50:02.645Z,1010
2017-04-16T08:51:13.479Z,955
2017-04-16T08:52:24.221Z,720
2017-04-16T08:53:35.965Z,695
2017-04-16T08:54:46.701Z,810
2017-04-16T08:55:57.451Z,900
2017-04-16T08:57:08.614Z,945
2017-04-16T08:58:18.754Z,1005
2017-04-16T08:59:29.660Z,925
2017-04-16T09:00:40.473Z,830
2017-04-16T09:01:50.844Z,710
2017-04-16T09:03:01.891Z,675
2017-04-16T09:04:11.888Z,635
2017-04-16T09:05:22.978Z,555
2017-04-16T09:06:33.730Z,445
2017-04-16T09:07:44.497Z,335
2017-04-16T09:08:54.884Z,310
2017-04-16T09:10:05.136Z,395
2017-04-16T09:11:15.273Z,360
2017-04-16T09:12:25.509Z,425
2017-04-16T09:13:35.677Z,775
2017-04-16T09:14:45.808Z,1015
2017-04-16T09:15:55.915Z,1000
2017-04-16T09:17:06.014Z,820
2017-04-16T09:18:15.477Z,720
2017-04-16T09:19:25.676Z,1110
2017-04-16T09:20:36.457Z,1840
2017-04-16T09:21:47.253Z,1020
2017-04-16T09:22:57.626Z,4110
2017-04-16T09:24:08.424Z,835
2017-04-16T09:25:19.746Z,915
2017-04-16T09:26:30.826Z,845
2017-04-16T09:27:41.604Z,810
2017-04-16T09:28:51.741Z,1225
2017-04-16T09:30:01.789Z,530
2017-04-16T09:31:12.160Z,3900
2017-04-16T09:32:22.858Z,3830
2017-04-16T09:33:33.680Z,3450
2017-04-16T09:34:44.427Z,2595
2017-04-16T09:35:54.471Z,1360
2017-04-16T09:37:05.819Z,1610
2017-04-16T09:38:16.917Z,1405
2017-04-16T09:39:27.676Z,1490
2017-04-16T09:40:38.152Z,3745
2017-04-16T09:41:48.529Z,2905
2017-04-16T09:42:59.252Z,3375
2017-04-16T09:44:10.324Z,765
2017-04-16T09:45:21.127Z,710
2017-04-16T09:46:31.847Z,580
2017-04-16T09:47:42.947Z,465
2017-04-16T09:48:53.676Z,420
2017-04-16T09:50:04.346Z,540
2017-04-16T09:51:14.794Z,555
2017-04-16T09:52:25.564Z,540
2017-04-16T09:53:36.793Z,545
2017-04-16T09:54:47.197Z,605
2017-04-16T09:55:58.321Z,785
2017-04-16T09:57:08.823Z,1180
2017-04-16T09:58:19.522Z,1940
2017-04-16T09:59:30.159Z,960
2017-04-16T10:00:40.570Z,600
2017-04-16T10:01:50.987Z,640
2017-04-16T10:03:01.401Z,895
2017-04-16T10:04:11.784Z,1045
2017-04-16T10:05:22.216Z,920
2017-04-16T10:06:32.593Z,975
2017-04-16T10:07:43.266Z,1020
2017-04-16T10:08:54.203Z,1115
2017-04-16T10:10:04.983Z,5460
2017-04-16T10:11:15.742Z,1800
2017-04-16T10:12:26.717Z,895
2017-04-16T10:13:37.506Z,935
2017-04-16T10:14:48.292Z,905
2017-04-16T10:15:59.136Z,2470
2017-04-16T10:17:09.841Z,2300
2017-04-16T10:18:19.900Z,5700
2017-04-16T10:19:30.926Z,5255
2017-04-16T10:20:41.682Z,1825
2017-04-16T10:21:52.056Z,5190
2017-04-16T10:23:02.466Z,4670
2017-04-16T10:24:13.324Z,4450
2017-04-16T10:25:24.446Z,4575
2017-04-16T10:26:35.379Z,4600
2017-04-16T10:27:46.239Z,4640
2017-04-16T10:28:57.013Z,4160
2017-04-16T10:30:07.725Z,4650
2017-04-16T10:31:18.763Z,4930
2017-04-16T10:32:29.592Z,3375
2017-04-16T10:33:39.637Z,3395
2017-04-16T10:34:50.110Z,1185
2017-04-16T10:36:00.883Z,1035
2017-04-16T10:37:12.910Z,1150
2017-04-16T10:38:23.292Z,1370
2017-04-16T10:39:33.831Z,950
2017-04-16T10:40:43.935Z,835
2017-04-16T10:41:54.765Z,655
2017-04-16T10:43:05.450Z,640
2017-04-16T10:44:16.228Z,540
2017-04-16T10:45:27.107Z,530
2017-04-16T10:46:37.823Z,780
2017-04-16T10:47:48.160Z,930
2017-04-16T10:48:58.836Z,610
2017-04-16T10:50:09.598Z,400
2017-04-16T10:51:20.357Z,260
2017-04-16T10:52:31.132Z,240
2017-04-16T10:53:41.885Z,270
2017-04-16T10:54:52.975Z,250
2017-04-16T10:56:03.472Z,275
2017-04-16T10:57:13.855Z,290
2017-04-16T10:58:24.244Z,275
2017-04-16T10:59:35.136Z,295
2017-04-16T11:00:46.143Z,365
2017-04-16T11:01:57.030Z,815
2017-04-16T11:03:07.796Z,5365
2017-04-16T11:04:18.521Z,5225
2017-04-16T11:05:29.227Z,965
2017-04-16T11:06:39.927Z,855
2017-04-16T11:07:50.769Z,560
2017-04-16T11:09:01.157Z,410
2017-04-16T11:10:11.382Z,425
2017-04-16T11:11:22.717Z,730
2017-04-16T11:12:33.144Z,1160
2017-04-16T11:13:43.906Z,4960
2017-04-16T11:14:54.654Z,5185
2017-04-16T11:16:06.349Z,5355
2017-04-16T11:17:17.084Z,5455
2017-04-16T11:18:27.990Z,5420
2017-04-16T11:19:38.745Z,5290
2017-04-16T11:20:49.509Z,4985
2017-04-16T11:21:59.943Z,4440
2017-04-16T11:23:10.672Z,3825
2017-04-16T11:24:21.368Z,3715
2017-04-16T11:25:31.809Z,4205
2017-04-16T11:26:42.546Z,4565
2017-04-16T11:27:53.302Z,4885
2017-04-16T11:29:04.056Z,5285
2017-04-16T11:30:14.759Z,5620
2017-04-16T11:31:25.152Z,5795
2017-04-16T11:32:35.653Z,5715
2017-04-16T11:33:46.389Z,5495
2017-04-16T11:34:56.786Z,5225
2017-04-16T11:36:07.914Z,5230
2017-04-16T11:37:18.661Z,2755
2017-04-16T11:38:29.429Z,3195
2017-04-16T11:39:39.407Z,1905
2017-04-16T11:40:50.149Z,1500
2017-04-16T11:42:01.244Z,1195
2017-04-16T11:43:12.035Z,2430
2017-04-16T11:44:23.777Z,1605
2017-04-16T11:45:34.425Z,5830
2017-04-16T11:46:44.465Z,5555
2017-04-16T11:47:55.687Z,890
2017-04-16T11:49:06.445Z,645
2017-04-16T11:50:17.184Z,590
2017-04-16T11:51:28.131Z,840
2017-04-16T11:52:38.854Z,855
2017-04-16T11:53:49.565Z,795
2017-04-16T11:55:00.980Z,700
2017-04-16T11:56:12.381Z,575
2017-04-16T11:57:23.257Z,465
2017-04-16T11:58:33.976Z,530
2017-04-16T11:59:44.714Z,710
2017-04-16T12:00:54.874Z,660
2017-04-16T12:02:05.600Z,705
2017-04-16T12:03:15.981Z,4815
2017-04-16T12:04:26.699Z,4290
2017-04-16T12:05:37.863Z,2650
2017-04-16T12:06:48.381Z,3965
2017-04-16T12:07:58.761Z,1160
2017-04-16T12:09:09.583Z,3725
2017-04-16T12:10:19.895Z,795
2017-04-16T12:11:30.657Z,485
2017-04-16T12:12:41.455Z,510
2017-04-16T12:13:52.184Z,565
2017-04-16T12:15:02.929Z,700
2017-04-16T12:16:14.772Z,4240
2017-04-16T12:17:26.744Z,4075
2017-04-16T12:18:38.533Z,3990
2017-04-16T12:19:49.255Z,3860
2017-04-16T12:21:00.065Z,3755
2017-04-16T12:22:10.678Z,3630
2017-04-16T12:23:21.355Z,3715
2017-04-16T12:24:32.101Z,3895
2017-04-16T12:25:42.855Z,4135
2017-04-16T12:26:53.736Z,4170
2017-04-16T12:28:04.553Z,830
2017-04-16T12:29:16.554Z,755
2017-04-16T12:30:27.388Z,1085
2017-04-16T12:31:37.710Z,1315
2017-04-16T12:32:48.491Z,1240
2017-04-16T12:33:58.945Z,1210
2017-04-16T12:35:09.807Z,1030
2017-04-16T12:36:20.688Z,575
2017-04-16T12:37:31.530Z,460
2017-04-16T12:38:42.258Z,445
2017-04-16T12:39:53.012Z,490
2017-04-16T12:41:04.072Z,415
2017-04-16T12:42:14.481Z,330
2017-04-16T12:43:25.227Z,305
2017-04-16T12:44:36.052Z,285
2017-04-16T12:45:46.783Z,270
2017-04-16T12:46:57.881Z,280
2017-04-16T12:48:08.730Z,380
2017-04-16T12:49:19.511Z,590
2017-04-16T12:50:31.217Z,740
2017-04-16T12:51:42.030Z,715
2017-04-16T12:52:52.763Z,1020
2017-04-16T12:54:03.206Z,3560
2017-04-16T12:55:13.927Z,3340
2017-04-16T12:56:24.358Z,1730
2017-04-16T12:57:35.285Z,2070
2017-04-16T12:58:46.311Z,1130
2017-04-16T12:59:57.102Z,3010
2017-04-16T13:01:07.515Z,2235
2017-04-16T13:02:18.386Z,3535
2017-04-16T13:03:30.058Z,610
2017-04-16T13:04:41.167Z,560
2017-04-16T13:05:51.973Z,585
2017-04-16T13:07:02.425Z,520
2017-04-16T13:08:12.886Z,455
2017-04-16T13:09:23.778Z,520
2017-04-16T13:10:34.590Z,845
2017-04-16T13:11:45.707Z,1035
2017-04-16T13:13:00.863Z,1525
2017-04-16T13:14:14.177Z,1155
2017-04-16T13:15:27.360Z,1240
2017-04-16T13:16:44.608Z,1340
2017-04-16T13:17:55.833Z,3160
2017-04-16T13:19:06.368Z,3255
2017-04-16T13:20:16.423Z,2845
2017-04-16T13:21:27.450Z,2410
2017-04-16T13:22:38.243Z,1950
2017-04-16T13:23:48.668Z,815
2017-04-16T13:24:59.513Z,690
2017-04-16T13:26:09.953Z,770
2017-04-16T13:27:21.109Z,960
2017-04-16T13:28:32.068Z,2735
2017-04-16T13:29:42.859Z,2430
2017-04-16T13:30:53.244Z,1445
2017-04-16T13:32:03.647Z,1210
2017-04-16T13:33:14.349Z,1085
2017-04-16T13:34:24.789Z,1240
2017-04-16T13:35:35.557Z,1355
2017-04-16T13:36:46.326Z,1980
2017-04-16T13:37:57.998Z,2130
2017-04-16T13:39:09.113Z,1465
2017-04-16T13:40:19.906Z,975
2017-04-16T13:41:30.321Z,590
2017-04-16T13:42:40.812Z,500
2017-04-16T13:43:51.717Z,630
2017-04-16T13:45:02.413Z,815
2017-04-16T13:46:13.235Z,640
2017-04-16T13:47:23.966Z,605
2017-04-16T13:48:34.729Z,575
2017-04-16T13:49:45.105Z,585
2017-04-16T13:50:55.792Z,580
2017-04-16T13:52:06.503Z,550
2017-04-16T13:53:17.414Z,560
2017-04-16T13:54:28.208Z,645
2017-04-16T13:55:38.613Z,690
2017-04-16T13:56:49.634Z,1590
2017-04-16T13:58:00.090Z,1070
2017-04-16T13:59:11.761Z,1140
2017-04-16T14:00:22.471Z,980
2017-04-16T14:01:34.196Z,925
2017-04-16T14:02:45.237Z,995
2017-04-16T14:03:56.038Z,975
2017-04-16T14:05:06.416Z,775
2017-04-16T14:06:16.836Z,765
2017-04-16T14:07:27.588Z,675
2017-04-16T14:08:38.624Z,705
2017-04-16T14:09:48.675Z,785
2017-04-16T14:11:00.382Z,1925
2017-04-16T14:12:11.218Z,785
2017-04-16T14:13:21.950Z,830
2017-04-16T14:14:32.640Z,1045
2017-04-16T14:15:43.025Z,915
2017-04-16T14:16:54.744Z,875
2017-04-16T14:18:05.687Z,775
2017-04-16T14:19:16.816Z,700
2017-04-16T14:20:27.956Z,640
2017-04-16T14:21:39.625Z,540
2017-04-16T14:22:51.305Z,405
2017-04-16T14:24:02.023Z,305
2017-04-16T14:25:12.488Z,240
2017-04-16T14:26:23.188Z,200
2017-04-16T14:27:34.058Z,170
2017-04-16T14:28:44.649Z,185
2017-04-16T14:29:54.750Z,345
2017-04-16T14:31:04.893Z,550
2017-04-16T14:32:14.937Z,670
2017-04-16T14:33:24.693Z,745
2017-04-16T14:34:34.794Z,750
2017-04-16T14:35:44.225Z,710
2017-04-16T14:36:54.450Z,670
2017-04-16T14:38:04.879Z,625
2017-04-16T14:39:15.053Z,730
2017-04-16T14:40:24.817Z,2055
2017-04-16T14:41:34.624Z,2015
2017-04-16T14:42:44.048Z,750
2017-04-16T14:43:54.440Z,675
2017-04-16T14:45:03.546Z,760
2017-04-16T14:46:13.724Z,1110
2017-04-16T14:47:23.562Z,2405
2017-04-16T14:48:33.034Z,2470
2017-04-16T14:49:43.478Z,2660
2017-04-16T14:50:53.568Z,1970
2017-04-16T14:52:35.527Z,1575
2017-04-16T14:53:44.942Z,995
2017-04-16T14:54:55.116Z,755
2017-04-16T14:56:04.528Z,650
2017-04-16T14:57:14.284Z,635
2017-04-16T14:58:24.404Z,640
2017-04-16T14:59:34.494Z,655
2017-04-16T15:00:43.993Z,730
2017-04-16T15:01:54.221Z,1215
2017-04-16T15:03:04.042Z,1165
2017-04-16T15:04:14.283Z,2275
2017-04-16T15:05:24.437Z,825
2017-04-16T15:06:34.577Z,865
2017-04-16T15:07:44.339Z,1055
2017-04-16T15:08:54.424Z,765
2017-04-16T15:10:04.507Z,795
2017-04-16T15:11:14.270Z,805
2017-04-16T15:12:24.322Z,930
2017-04-16T15:13:34.844Z,1510
2017-04-16T15:14:44.932Z,1270
2017-04-16T15:15:54.713Z,1500
2017-04-16T15:17:04.461Z,705
2017-04-16T15:18:14.538Z,970
2017-04-16T15:19:24.343Z,870
2017-04-16T15:20:34.447Z,755
2017-04-16T15:21:44.584Z,805
2017-04-16T15:22:54.699Z,975
2017-04-16T15:24:04.771Z,775
2017-04-16T15:25:14.859Z,1170
2017-04-16T15:26:24.611Z,1010
2017-04-16T15:27:34.378Z,880
2017-04-16T15:28:44.545Z,730
2017-04-16T15:29:54.637Z,720
2017-04-16T15:31:04.759Z,740
2017-04-16T15:32:14.855Z,825
2017-04-16T15:33:24.939Z,1130
2017-04-16T15:34:34.750Z,1320
2017-04-16T15:35:45.146Z,705
2017-04-16T15:36:54.934Z,740
2017-04-16T15:38:04.457Z,1555
2017-04-16T15:39:14.211Z,755
2017-04-16T15:40:24.385Z,820
2017-04-16T15:41:34.464Z,1210
2017-04-16T15:42:44.815Z,1660
2017-04-16T15:43:55.062Z,1590
2017-04-16T15:45:05.178Z,1570
2017-04-16T15:46:14.928Z,1245
2017-04-16T15:47:25.091Z,860
2017-04-16T15:48:35.291Z,790
2017-04-16T15:49:45.381Z,570
2017-04-16T15:50:55.475Z,495
2017-04-16T15:52:05.802Z,435
2017-04-16T15:53:16.327Z,385
2017-04-16T15:54:27.039Z,360
2017-04-16T15:55:37.241Z,350
2017-04-16T15:56:47.314Z,340
2017-04-16T15:57:57.464Z,320
2017-04-16T15:59:07.543Z,300
2017-04-16T16:00:17.264Z,275
2017-04-16T16:01:27.363Z,255
2017-04-16T16:02:37.460Z,245
2017-04-16T16:03:47.655Z,250
2017-04-16T16:04:57.799Z,265
2017-04-16T16:06:08.279Z,260
2017-04-16T16:07:18.357Z,235
2017-04-16T16:08:28.558Z,215
2017-04-16T16:09:38.653Z,265
2017-04-16T16:10:48.734Z,215
2017-04-16T16:11:59.105Z,195
2017-04-16T16:13:09.292Z,180
2017-04-16T16:14:19.415Z,175
2017-04-16T16:15:29.159Z,175
2017-04-16T16:16:38.954Z,185
2017-04-16T16:17:49.375Z,195
2017-04-16T16:18:59.174Z,215
2017-04-16T16:20:09.265Z,230
2017-04-16T16:21:19.413Z,240